• Join FlightAware (Why Join?)
  • Login
  • US Flag 
01:25AM EDT


 

Airport Tracker/Info


-or-


 

Live Flight TrackerFlight Track Log ✈ DAL1613 ✈ 18-May-2012 ✈ KIND - KATL

Flight Track Log - Related Links

Times and Time Zones

All times are in EDT time to prevent confusion due to time zone crossing. See the DAL1613 flight status page for this flight to view local times or setup timezone preferences in your user account.

Time Position Orientation Groundspeed Altitude Reporting Facility
EDT Latitude Longitude Course Direction KTS MPH feet Rate Location/Type
02:35PM 39.7000 -86.3167 232° Southwest 172 198 1,500  Level Indianapolis TRACON
02:36PM 39.6500 -86.4000 180° South 236 272 3,900 2,160 Climbing Indianapolis TRACON
02:37PM 39.5833 -86.4000 170° South 261 300 6,600 2,580 Climbing Indianapolis TRACON
02:38PM 39.4794 -86.3764 167° South 315 362 10,100 1,980 Climbing Indianapolis Center
02:39PM 39.3925 -86.3514 168° South 321 369 11,400 1,920 Climbing Indianapolis Center
02:40PM 39.2931 -86.3233 166° South 353 406 14,000 2,400 Climbing Indianapolis Center
02:41PM 39.1814 -86.2869 167° South 374 430 16,200 2,160 Climbing Indianapolis Center
02:42PM 39.0736 -86.2558 167° South 386 444 18,400 2,040 Climbing Indianapolis Center
02:43PM 38.9639 -86.2225 168° South 398 458 20,300 1,740 Climbing Indianapolis Center
02:44PM 38.8539 -86.1917 167° South 409 471 21,900 1,560 Climbing Indianapolis Center
02:45PM 38.7358 -86.1581 168° South 419 482 23,500 1,560 Climbing Indianapolis Center
02:46PM 38.6178 -86.1247 169° South 433 498 25,100 1,380 Climbing Indianapolis Center
02:47PM 38.4953 -86.0939 187° South 448 516 26,300 1,140 Climbing Indianapolis Center
02:48PM 38.3697 -86.1133 191° South 448 516 27,400 1,020 Climbing Indianapolis Center
02:49PM 38.2397 -86.1458 190° South 459 528 28,400 1,140 Climbing Indianapolis Center
02:50PM 38.1056 -86.1753 190° South 472 543 29,700 1,500 Climbing Indianapolis Center
02:51PM 37.9819 -86.2025 190° South 471 542 31,400 1,440 Climbing Indianapolis Center
02:52PM 37.8539 -86.2322 192° South 471 542 32,600 960 Climbing Indianapolis Center
02:53PM 37.7322 -86.2644 190° South 466 536 33,400 780 Climbing Indianapolis Center
02:55PM 37.4703 -86.3225 190° South 460 529 35,000 480 Climbing Memphis Center
02:56PM 37.3422 -86.3500 191° South 466 536 35,000  Level Memphis Center
02:57PM 37.2181 -86.3797 190° South 461 531 35,000  Level Memphis Center
02:58PM 37.0919 -86.4067 190° South 462 532 35,000  Level Memphis Center
02:59PM 36.9656 -86.4336 181° South 467 537 35,000  Level Memphis Center
03:00PM 36.8367 -86.4375 176° South 461 531 35,000  Level Memphis Center
03:01PM 36.7111 -86.4256 179° South 456 525 35,000  Level Memphis Center
03:02PM 36.5817 -86.4214 176° South 463 533 35,000  Level Memphis Center
03:03PM 36.4647 -86.4117 178° South 463 533 35,000 -120 Level Memphis Center
03:04PM 36.3375 -86.4050 177° South 463 533 34,800 -600 Descending Memphis Center
03:05PM 36.2100 -86.3956 177° South 463 533 33,800 -900 Descending Memphis Center
03:06PM 36.0678 -86.3872 178° South 463 533 33,000 -420 Descending Memphis Center
03:07PM 35.9406 -86.3806 177° South 463 533 33,000  Level Memphis Center
03:08PM 35.8108 -86.3714 161° South 463 533 33,000  Level Memphis Center
03:09PM 35.6906 -86.3211 147° Southeast 458 527 33,000  Level Memphis Center
03:10PM 35.6208 -86.2664 147° Southeast 461 531 33,000  Level Atlanta Center
03:11PM 35.5139 -86.1819 147° Southeast 470 541 33,000  Level Atlanta Center
03:12PM 35.3967 -86.0897 139° Southeast 465 535 33,000 -420 Level Atlanta Center
03:13PM 35.2981 -85.9856 139° Southeast 465 535 32,200 -900 Descending Atlanta Center
03:14PM 35.2017 -85.8817 137° Southeast 465 535 31,200 -1,020 Descending Atlanta Center
03:15PM 35.1072 -85.7728 137° Southeast 465 535 30,200 -1,020 Descending Atlanta Center
03:16PM 35.0169 -85.6694 142° Southeast 465 535 29,200 -1,260 Descending Atlanta Center
03:17PM 34.9303 -85.5867 153° Southeast 434 499 27,700 -1,620 Descending Atlanta Center
03:18PM 34.8331 -85.5267 153° Southeast 404 465 26,000 -1,800 Descending Atlanta Center
03:19PM 34.7397 -85.4694 153° Southeast 382 440 24,100 -1,260 Descending Atlanta Center
03:20PM 34.6444 -85.4097 155° Southeast 375 432 23,500 -1,020 Descending Atlanta Center
03:21PM 34.5367 -85.3475 153° Southeast 392 451 22,100 -2,040 Descending Atlanta Center
03:22PM 34.4350 -85.2856 152° Southeast 412 474 19,500 -2,340 Descending Atlanta Center
03:23PM 34.3458 -85.2289 154° Southeast 412 474 17,500 -2,100 Descending Atlanta Center
03:24PM 34.2525 -85.1747 152° Southeast 389 448 15,400 -2,040 Descending Atlanta Center
03:25PM 34.1611 -85.1158 135° Southeast 371 427 13,500 -1,200 Descending Atlanta Center
03:26PM 34.0928 -85.0322 132° Southeast 345 397 13,000 -300 Descending Atlanta Center
03:27PM 34.0350 -84.9561 133° Southeast 310 357 13,000 -720 Level Atlanta Center
03:28PM 33.9792 -84.8831 138° Southeast 299 344 11,600 -1,560 Descending Atlanta Center
03:29PM 33.9192 -84.8172 160° South 299 344 9,900 -1,740 Descending Atlanta Center
03:30PM 33.8422 -84.7842 160° South 294 338 8,200 -1,320 Descending Atlanta Center
03:31PM 33.7672 -84.7511 160° South 294 338 7,400 -900 Descending Atlanta Center
03:32PM 33.7025 -84.7231 142° Southeast 268 308 6,400 -1,020 Descending Atlanta Center
03:33PM 33.6589 -84.6828 94° East 223 257 5,400 -1,140 Descending Atlanta Center
03:35PM 33.6500 -84.5333 90° East 174 200 2,500 -1,080 Descending Atlanta TRACON
03:36PM 33.6500 -84.4833 107° East 139 160 1,800 -720 Descending Atlanta TRACON
03:44PM 33.6333 -84.4167 290° West  Level FlightAware Approximate
03:45PM 33.6684 -84.5347 290° West  Level Estimated